Time;durP1;ratioP1;P1;durP2;ratioP2;P2;SDS_P1;SDS_P2;PMS_P1;PMS_P2;Temp;Humidity;BMP_temperature;BMP_pressure;BME280_temperature;BME280_humidity;BME280_pressure;Samples;Min_cycle;Max_cycle;Signal;HPM_P1;HPM_P2
2021/07/09 00:00:37;;;;;;;8.68;7.72;;;;;;;;;;6136784;29;20115;-78
2021/07/09 00:03:41;;;;;;;10.20;7.82;;;;;;;;;;6101976;29;20398;-78
2021/07/09 00:06:44;;;;;;;12.68;7.53;;;;;;;;;;6099725;29;20040;-78
2021/07/09 00:09:47;;;;;;;9.82;7.68;;;;;;;;;;6120442;29;20044;-81
2021/07/09 00:12:49;;;;;;;12.98;7.93;;;;;;;;;;6127984;29;20058;-78
2021/07/09 00:15:51;;;;;;;9.68;7.25;;;;;;;;;;6139190;29;20051;-78
2021/07/09 00:18:53;;;;;;;9.25;6.85;;;;;;;;;;6102280;29;20199;-78
2021/07/09 00:21:57;;;;;;;9.50;7.18;;;;;;;;;;6168372;28;20059;-78
2021/07/09 00:24:59;;;;;;;8.95;6.65;;;;;;;;;;6135727;28;20058;-78
2021/07/09 00:28:00;;;;;;;9.43;6.15;;;;;;;;;;6130687;29;20313;-78
2021/07/09 00:31:02;;;;;;;7.20;5.88;;;;;;;;;;6129670;28;20048;-78
2021/07/09 00:34:06;;;;;;;7.70;6.45;;;;;;;;;;6128643;29;20039;-78
2021/07/09 00:37:07;;;;;;;10.10;6.70;;;;;;;;;;6128959;29;20071;-79
2021/07/09 00:40:10;;;;;;;12.18;7.47;;;;;;;;;;6128292;28;20058;-79
2021/07/09 00:43:12;;;;;;;9.20;7.38;;;;;;;;;;6113524;29;20047;-78
2021/07/09 00:46:14;;;;;;;9.05;6.75;;;;;;;;;;6131304;28;20134;-78
2021/07/09 00:49:15;;;;;;;9.82;6.97;;;;;;;;;;6127916;29;20055;-78
2021/07/09 00:52:18;;;;;;;9.63;6.60;;;;;;;;;;6127538;29;20071;-78
2021/07/09 00:55:20;;;;;;;9.32;7.15;;;;;;;;;;6126238;29;20102;-78
2021/07/09 00:58:22;;;;;;;10.48;8.02;;;;;;;;;;6128873;29;20046;-78
2021/07/09 01:01:23;;;;;;;8.98;7.13;;;;;;;;;;6126423;29;20047;-78
2021/07/09 01:04:25;;;;;;;7.85;6.88;;;;;;;;;;6142996;29;20058;-78
2021/07/09 01:07:27;;;;;;;8.88;6.72;;;;;;;;;;6128731;29;20051;-78
2021/07/09 01:10:29;;;;;;;8.40;6.63;;;;;;;;;;6129004;28;20063;-78
2021/07/09 01:13:30;;;;;;;7.75;6.82;;;;;;;;;;6128843;29;20048;-79
2021/07/09 01:16:32;;;;;;;8.25;6.15;;;;;;;;;;6120023;29;20040;-78
2021/07/09 01:19:34;;;;;;;7.05;6.18;;;;;;;;;;6106432;29;20421;-79
2021/07/09 01:22:44;;;;;;;8.82;6.95;;;;;;;;;;6110182;29;20095;-79
2021/07/09 01:25:46;;;;;;;9.07;6.68;;;;;;;;;;6138985;28;20047;-78
2021/07/09 01:28:47;;;;;;;11.45;6.80;;;;;;;;;;6130227;29;20040;-78
2021/07/09 01:31:49;;;;;;;7.50;6.38;;;;;;;;;;6128009;29;20069;-79
2021/07/09 01:34:51;;;;;;;8.95;6.07;;;;;;;;;;6128859;29;20582;-78
2021/07/09 01:38:06;;;;;;;7.25;6.50;;;;;;;;;;6120681;28;20043;-78
2021/07/09 01:41:08;;;;;;;7.55;6.00;;;;;;;;;;6149893;28;20411;-79
2021/07/09 01:44:09;;;;;;;7.72;6.28;;;;;;;;;;6166803;28;20086;-78
2021/07/09 01:47:11;;;;;;;8.57;6.63;;;;;;;;;;6164581;28;20074;-78
2021/07/09 01:50:13;;;;;;;11.60;6.45;;;;;;;;;;6159269;28;20063;-79
2021/07/09 01:53:15;;;;;;;9.35;6.82;;;;;;;;;;6160838;28;20059;-79
2021/07/09 01:56:16;;;;;;;8.60;6.32;;;;;;;;;;6160777;28;20591;-79
2021/07/09 01:59:18;;;;;;;7.80;7.00;;;;;;;;;;6150091;28;20176;-78
2021/07/09 02:02:20;;;;;;;8.97;6.63;;;;;;;;;;6126362;29;20040;-78
2021/07/09 02:05:23;;;;;;;7.78;6.97;;;;;;;;;;6127412;29;20134;-78
2021/07/09 02:08:25;;;;;;;;;;;;;;;;;;6149526;28;20051;-78
2021/07/09 02:11:26;;;;;;;8.40;6.72;;;;;;;;;;6143738;28;20713;-78
2021/07/09 02:14:28;;;;;;;9.07;6.93;;;;;;;;;;6166302;28;20047;-78
2021/07/09 02:17:30;;;;;;;8.90;7.25;;;;;;;;;;6148079;28;20657;-78
2021/07/09 02:20:33;;;;;;;14.38;7.70;;;;;;;;;;6141110;29;20089;-78
2021/07/09 02:23:34;;;;;;;9.23;7.30;;;;;;;;;;6129611;28;20074;-78
2021/07/09 02:26:36;;;;;;;9.75;8.20;;;;;;;;;;6129242;28;20103;-78
2021/07/09 02:29:39;;;;;;;11.48;8.77;;;;;;;;;;6139370;29;20044;-78
2021/07/09 02:32:41;;;;;;;10.68;8.32;;;;;;;;;;6125514;29;20047;-78
2021/07/09 02:35:43;;;;;;;11.77;8.98;;;;;;;;;;6124110;29;20056;-78
2021/07/09 02:38:44;;;;;;;14.40;9.20;;;;;;;;;;6123067;29;20075;-78
2021/07/09 02:41:46;;;;;;;12.02;8.30;;;;;;;;;;6119668;28;20087;-79
2021/07/09 02:44:48;;;;;;;13.25;9.90;;;;;;;;;;6131926;29;20130;-78
2021/07/09 02:47:50;;;;;;;13.98;9.93;;;;;;;;;;6131468;28;20046;-79
2021/07/09 02:50:52;;;;;;;14.48;9.60;;;;;;;;;;6117854;29;20071;-79
2021/07/09 02:53:53;;;;;;;12.75;9.77;;;;;;;;;;6093439;29;20126;-78
2021/07/09 02:56:55;;;;;;;13.20;10.05;;;;;;;;;;6101386;29;20222;-77
2021/07/09 02:59:57;;;;;;;16.23;10.52;;;;;;;;;;6139962;28;20155;-78
2021/07/09 03:02:58;;;;;;;14.60;10.88;;;;;;;;;;6099928;28;20131;-79
2021/07/09 03:06:00;;;;;;;14.65;10.77;;;;;;;;;;6093345;29;20754;-79
2021/07/09 03:09:04;;;;;;;15.20;11.05;;;;;;;;;;6092741;29;20046;-78
2021/07/09 03:12:06;;;;;;;15.82;12.20;;;;;;;;;;6092585;29;20123;-78
2021/07/09 03:15:10;;;;;;;16.33;12.63;;;;;;;;;;6093555;29;20517;-78
2021/07/09 03:18:12;;;;;;;17.90;11.73;;;;;;;;;;6097666;29;20123;-78
2021/07/09 03:21:13;;;;;;;14.35;10.98;;;;;;;;;;6099088;29;20143;-77
2021/07/09 03:24:16;;;;;;;17.55;11.55;;;;;;;;;;6119808;29;20421;-78
2021/07/09 03:27:17;;;;;;;19.17;12.15;;;;;;;;;;6122374;29;20180;-79
2021/07/09 03:30:19;;;;;;;17.55;12.10;;;;;;;;;;6137411;29;20058;-78
2021/07/09 03:33:21;;;;;;;14.95;11.55;;;;;;;;;;6122379;29;20183;-77
2021/07/09 03:36:24;;;;;;;18.20;11.90;;;;;;;;;;6122676;29;20187;-79
2021/07/09 03:39:26;;;;;;;14.57;11.45;;;;;;;;;;6120255;29;20171;-77
2021/07/09 03:42:28;;;;;;;16.83;11.90;;;;;;;;;;6097039;29;20639;-79
2021/07/09 03:45:29;;;;;;;16.92;11.73;;;;;;;;;;6103818;29;20047;-77
2021/07/09 03:48:31;;;;;;;17.67;12.10;;;;;;;;;;6145841;28;20102;-79
2021/07/09 03:51:37;;;;;;;16.48;12.63;;;;;;;;;;6146533;28;20058;-79
2021/07/09 03:54:39;;;;;;;17.85;11.65;;;;;;;;;;6160654;28;20051;-79
2021/07/09 03:57:41;;;;;;;16.00;11.40;;;;;;;;;;6133501;28;20109;-78
2021/07/09 04:00:42;;;;;;;15.20;11.32;;;;;;;;;;6163885;28;20046;-78
2021/07/09 04:03:44;;;;;;;14.75;11.63;;;;;;;;;;6120675;29;20051;-79
2021/07/09 04:06:46;;;;;;;17.05;12.05;;;;;;;;;;6122233;29;20127;-77
2021/07/09 04:09:47;;;;;;;16.08;11.35;;;;;;;;;;6120199;29;20522;-78
2021/07/09 04:12:49;;;;;;;16.08;12.07;;;;;;;;;;6134809;28;20075;-80
2021/07/09 04:15:51;;;;;;;18.23;13.07;;;;;;;;;;6146681;28;20127;-78
2021/07/09 04:18:53;;;;;;;17.40;12.90;;;;;;;;;;6158322;28;20181;-78
2021/07/09 04:21:54;;;;;;;18.73;12.60;;;;;;;;;;6142074;28;20394;-78
2021/07/09 04:24:56;;;;;;;19.33;12.98;;;;;;;;;;6154032;28;20169;-78
2021/07/09 04:27:58;;;;;;;18.23;12.68;;;;;;;;;;6141351;28;20193;-78
2021/07/09 04:31:00;;;;;;;20.65;12.98;;;;;;;;;;6137635;28;20055;-79
2021/07/09 04:34:02;;;;;;;18.63;12.65;;;;;;;;;;6118303;29;20501;-79
2021/07/09 04:37:08;;;;;;;19.80;13.30;;;;;;;;;;6117969;29;20075;-77
2021/07/09 04:40:10;;;;;;;17.90;12.32;;;;;;;;;;6118458;28;20079;-78
2021/07/09 04:43:12;;;;;;;19.10;12.82;;;;;;;;;;6119442;29;20505;-79
2021/07/09 04:46:15;;;;;;;18.40;13.27;;;;;;;;;;6118092;28;20130;-79
2021/07/09 04:49:16;;;;;;;19.05;13.20;;;;;;;;;;6134564;29;20056;-78
2021/07/09 04:52:19;;;;;;;18.90;13.13;;;;;;;;;;6134427;29;20106;-77
2021/07/09 04:55:21;;;;;;;20.60;13.68;;;;;;;;;;6119601;29;20083;-78
2021/07/09 04:58:22;;;;;;;17.20;12.80;;;;;;;;;;6128436;28;20126;-79
2021/07/09 05:01:24;;;;;;;20.63;13.30;;;;;;;;;;6133705;29;20553;-77
2021/07/09 05:04:26;;;;;;;20.75;14.65;;;;;;;;;;6118112;29;20046;-77
2021/07/09 05:07:27;;;;;;;20.38;14.23;;;;;;;;;;6120452;29;20166;-80
2021/07/09 05:10:29;;;;;;;22.67;14.60;;;;;;;;;;6121077;28;20442;-80
2021/07/09 05:13:31;;;;;;;20.55;13.98;;;;;;;;;;6118557;29;20504;-78
2021/07/09 05:16:34;;;;;;;22.48;14.93;;;;;;;;;;6118523;29;20054;-78
2021/07/09 05:19:36;;;;;;;23.27;14.35;;;;;;;;;;6134230;29;20039;-78
2021/07/09 05:22:37;;;;;;;21.23;15.23;;;;;;;;;;6132368;29;20671;-79
2021/07/09 05:25:39;;;;;;;27.38;16.85;;;;;;;;;;6120171;28;20055;-77
2021/07/09 05:28:41;;;;;;;22.85;16.02;;;;;;;;;;6142291;28;20512;-77
2021/07/09 05:31:42;;;;;;;26.90;16.27;;;;;;;;;;6131439;28;20134;-79
2021/07/09 05:34:44;;;;;;;26.23;16.17;;;;;;;;;;6118585;29;20043;-77
2021/07/09 05:37:46;;;;;;;27.25;17.60;;;;;;;;;;6116873;29;20534;-80
2021/07/09 05:40:48;;;;;;;27.55;17.92;;;;;;;;;;6119613;28;20190;-77
2021/07/09 05:43:49;;;;;;;28.75;17.48;;;;;;;;;;6115898;29;20071;-77
2021/07/09 05:46:51;;;;;;;28.60;18.17;;;;;;;;;;6119237;29;20048;-78
2021/07/09 05:49:53;;;;;;;28.98;18.15;;;;;;;;;;6133242;29;20575;-78
2021/07/09 05:52:55;;;;;;;29.85;17.73;;;;;;;;;;6118422;29;20668;-77
2021/07/09 05:55:58;;;;;;;30.13;17.85;;;;;;;;;;6127384;28;20043;-79
2021/07/09 05:58:59;;;;;;;29.52;18.48;;;;;;;;;;6156008;28;20070;-77
2021/07/09 06:02:01;;;;;;;27.27;17.08;;;;;;;;;;6149553;28;20117;-79
2021/07/09 06:05:05;;;;;;;29.60;18.73;;;;;;;;;;6116440;29;20047;-77
2021/07/09 06:08:08;;;;;;;29.25;18.05;;;;;;;;;;6115328;29;20123;-78
2021/07/09 06:11:10;;;;;;;25.73;17.40;;;;;;;;;;6132255;28;20186;-79
2021/07/09 06:14:11;;;;;;;28.95;18.67;;;;;;;;;;6131686;28;20110;-79
2021/07/09 06:17:13;;;;;;;26.30;17.83;;;;;;;;;;6137348;28;20118;-83
2021/07/09 06:20:15;;;;;;;27.27;18.00;;;;;;;;;;6145638;28;20054;-78
2021/07/09 06:23:17;;;;;;;26.92;18.02;;;;;;;;;;6137675;28;20047;-81
2021/07/09 06:26:20;;;;;;;29.65;18.98;;;;;;;;;;6117261;28;20091;-79
2021/07/09 06:29:22;;;;;;;30.23;18.67;;;;;;;;;;6118737;28;20130;-79
2021/07/09 06:32:24;;;;;;;28.02;19.30;;;;;;;;;;6116793;28;20054;-80
2021/07/09 06:35:29;;;;;;;30.17;19.15;;;;;;;;;;6101056;28;20432;-79
2021/07/09 06:38:30;;;;;;;31.52;19.50;;;;;;;;;;6136241;28;20078;-81
2021/07/09 06:41:32;;;;;;;33.38;19.63;;;;;;;;;;6118282;28;20040;-78
2021/07/09 06:44:34;;;;;;;28.75;18.95;;;;;;;;;;6115942;29;20051;-79
2021/07/09 06:47:36;;;;;;;27.20;18.20;;;;;;;;;;6101349;29;20184;-79
2021/07/09 06:50:38;;;;;;;28.23;18.13;;;;;;;;;;6092774;29;20123;-80
2021/07/09 06:53:39;;;;;;;28.60;18.33;;;;;;;;;;6091888;29;20051;-81
2021/07/09 06:56:41;;;;;;;30.05;19.13;;;;;;;;;;6097861;29;20179;-80
2021/07/09 06:59:44;;;;;;;28.17;19.35;;;;;;;;;;6139204;28;20130;-78
2021/07/09 07:02:46;;;;;;;31.05;19.40;;;;;;;;;;6103860;29;20100;-80
2021/07/09 07:05:48;;;;;;;27.20;17.88;;;;;;;;;;6093325;29;20055;-79
2021/07/09 07:08:50;;;;;;;25.08;17.80;;;;;;;;;;6094876;29;20063;-82
2021/07/09 07:11:52;;;;;;;23.35;16.15;;;;;;;;;;6095455;29;20184;-79
2021/07/09 07:14:53;;;;;;;26.40;16.38;;;;;;;;;;6114820;29;20105;-80
2021/07/09 07:17:55;;;;;;;26.55;17.42;;;;;;;;;;6116723;29;20705;-80
2021/07/09 07:20:57;;;;;;;26.67;17.05;;;;;;;;;;6118321;29;20075;-81
2021/07/09 07:23:59;;;;;;;24.08;16.10;;;;;;;;;;6132061;29;20130;-79
2021/07/09 07:27:03;;;;;;;24.50;16.70;;;;;;;;;;6118926;29;20475;-79
2021/07/09 07:30:06;;;;;;;25.33;17.25;;;;;;;;;;6117643;29;20047;-81
2021/07/09 07:33:09;;;;;;;26.38;16.08;;;;;;;;;;6133167;28;20147;-80
2021/07/09 07:36:11;;;;;;;24.83;17.00;;;;;;;;;;6118064;29;20040;-79
2021/07/09 07:39:13;;;;;;;20.80;15.63;;;;;;;;;;6116055;29;20040;-79
2021/07/09 07:42:15;;;;;;;26.73;17.25;;;;;;;;;;6117610;29;20051;-80
2021/07/09 07:45:17;;;;;;;24.13;15.10;;;;;;;;;;6117286;29;20580;-80
2021/07/09 07:48:18;;;;;;;23.38;15.68;;;;;;;;;;6137481;28;20055;-79
2021/07/09 07:51:20;;;;;;;27.23;15.93;;;;;;;;;;6141481;28;20055;-79
2021/07/09 07:54:22;;;;;;;24.10;15.48;;;;;;;;;;6132764;28;20080;-79
2021/07/09 07:57:23;;;;;;;23.20;16.13;;;;;;;;;;6115120;28;20079;-80
2021/07/09 08:00:25;;;;;;;23.30;15.67;;;;;;;;;;6154400;28;20055;-79
2021/07/09 08:03:27;;;;;;;22.42;14.98;;;;;;;;;;6151994;28;20542;-78
2021/07/09 08:06:29;;;;;;;20.52;14.85;;;;;;;;;;6141879;28;20047;-78
2021/07/09 08:09:30;;;;;;;24.88;14.80;;;;;;;;;;6138029;28;20043;-79
2021/07/09 08:12:32;;;;;;;22.77;15.80;;;;;;;;;;6139639;28;20074;-78
2021/07/09 08:15:34;;;;;;;22.15;14.35;;;;;;;;;;6137772;28;20058;-79
2021/07/09 08:18:36;;;;;;;21.23;15.18;;;;;;;;;;6141082;28;20047;-78
2021/07/09 08:21:37;;;;;;;20.73;14.65;;;;;;;;;;6154221;28;20062;-79
2021/07/09 08:24:39;;;;;;;20.98;14.40;;;;;;;;;;6136423;28;20138;-78
2021/07/09 08:27:41;;;;;;;19.65;13.85;;;;;;;;;;6141002;28;20416;-78
2021/07/09 08:30:45;;;;;;;16.92;12.40;;;;;;;;;;6122433;28;20119;-79
2021/07/09 08:33:47;;;;;;;17.48;12.85;;;;;;;;;;6138602;28;20621;-78
2021/07/09 08:36:54;;;;;;;17.67;12.80;;;;;;;;;;6142474;28;20037;-78
2021/07/09 08:39:56;;;;;;;18.60;13.13;;;;;;;;;;6141997;28;20122;-79
2021/07/09 08:42:58;;;;;;;18.30;12.40;;;;;;;;;;6141101;28;20063;-79
2021/07/09 08:46:00;;;;;;;19.63;12.65;;;;;;;;;;6137500;28;20130;-78
2021/07/09 08:49:02;;;;;;;18.95;12.35;;;;;;;;;;6118444;29;20131;-78
2021/07/09 08:52:04;;;;;;;17.17;12.13;;;;;;;;;;6093995;29;20068;-79
2021/07/09 08:55:11;;;;;;;16.00;11.15;;;;;;;;;;6095369;29;20467;-79
2021/07/09 08:58:13;;;;;;;14.63;11.20;;;;;;;;;;6105575;29;20066;-78
2021/07/09 09:01:17;;;;;;;15.27;10.40;;;;;;;;;;6113992;29;20184;-80
2021/07/09 09:04:24;;;;;;;16.02;10.27;;;;;;;;;;6098175;29;20044;-79
2021/07/09 09:07:31;;;;;;;14.95;10.82;;;;;;;;;;6099894;29;20136;-81
2021/07/09 09:10:47;;;;;;;13.80;10.45;;;;;;;;;;6096651;29;20052;-80
2021/07/09 09:13:54;;;;;;;14.65;10.45;;;;;;;;;;6132641;29;20052;-79
2021/07/09 09:16:56;;;;;;;13.00;9.77;;;;;;;;;;6108566;29;20048;-78
2021/07/09 09:20:11;;;;;;;14.18;9.50;;;;;;;;;;6097392;29;20262;-79
2021/07/09 09:23:12;;;;;;;14.23;9.30;;;;;;;;;;6113664;28;20147;-79
2021/07/09 09:26:14;;;;;;;13.77;9.27;;;;;;;;;;6117501;28;20111;-78
2021/07/09 09:29:25;;;;;;;12.57;9.30;;;;;;;;;;6117570;28;20594;-78
2021/07/09 09:32:27;;;;;;;10.32;8.80;;;;;;;;;;6118478;28;20043;-78
2021/07/09 09:35:37;;;;;;;13.60;9.20;;;;;;;;;;6119793;28;20080;-78
2021/07/09 09:38:39;;;;;;;12.77;8.90;;;;;;;;;;6114235;28;20409;-78
2021/07/09 09:41:41;;;;;;;14.45;9.18;;;;;;;;;;6096211;29;20071;-79
2021/07/09 09:44:43;;;;;;;11.45;8.63;;;;;;;;;;6096710;29;20104;-78
2021/07/09 09:47:45;;;;;;;13.10;8.80;;;;;;;;;;6094504;29;20036;-78
2021/07/09 09:50:51;;;;;;;14.65;9.25;;;;;;;;;;6095052;29;20071;-78
2021/07/09 09:53:54;;;;;;;10.60;7.72;;;;;;;;;;6095801;29;20112;-78
2021/07/09 09:57:14;;;;;;;12.40;8.77;;;;;;;;;;6098685;29;20590;-78
2021/07/09 10:00:16;;;;;;;10.50;7.47;;;;;;;;;;6121204;29;20072;-78
2021/07/09 10:03:18;;;;;;;10.98;7.75;;;;;;;;;;6099077;29;20565;-79
2021/07/09 10:06:20;;;;;;;10.70;7.90;;;;;;;;;;6096873;29;20058;-79
2021/07/09 10:09:23;;;;;;;8.63;7.47;;;;;;;;;;6096523;29;20063;-78
2021/07/09 10:12:27;;;;;;;10.45;7.20;;;;;;;;;;6094612;29;20131;-80
2021/07/09 10:15:30;;;;;;;10.48;7.07;;;;;;;;;;6110815;29;20044;-78
2021/07/09 10:18:31;;;;;;;11.68;7.07;;;;;;;;;;6093747;29;20048;-79
2021/07/09 10:21:33;;;;;;;10.55;6.85;;;;;;;;;;6091542;29;20048;-78
2021/07/09 10:24:35;;;;;;;11.75;7.35;;;;;;;;;;6076650;29;20664;-78
2021/07/09 10:27:40;;;;;;;9.45;6.43;;;;;;;;;;6092065;29;20119;-78
2021/07/09 10:30:43;;;;;;;9.48;6.65;;;;;;;;;;6093755;29;20052;-79
2021/07/09 10:33:44;;;;;;;8.85;6.70;;;;;;;;;;6114465;29;20058;-78
2021/07/09 10:37:22;;;;;;;9.15;6.90;;;;;;;;;;6117535;29;20048;-78
2021/07/09 10:40:27;;;;;;;8.82;6.25;;;;;;;;;;6111020;29;20063;-78
2021/07/09 10:43:29;;;;;;;7.72;5.82;;;;;;;;;;6117151;29;20519;-78
2021/07/09 10:46:34;;;;;;;7.75;6.18;;;;;;;;;;6115524;28;20083;-77
2021/07/09 10:49:51;;;;;;;8.10;5.82;;;;;;;;;;6114844;29;20050;-77
2021/07/09 10:52:57;;;;;;;7.22;6.05;;;;;;;;;;6114290;29;20044;-77
2021/07/09 10:56:08;;;;;;;7.80;5.57;;;;;;;;;;6113895;29;20043;-77
2021/07/09 10:59:10;;;;;;;11.60;6.05;;;;;;;;;;6129691;28;20555;-79
2021/07/09 11:02:50;;;;;;;9.63;5.97;;;;;;;;;;6125807;28;20055;-79
2021/07/09 11:05:52;;;;;;;6.95;5.68;;;;;;;;;;6115678;29;20059;-79
2021/07/09 11:09:05;;;;;;;6.13;5.53;;;;;;;;;;6114174;29;20127;-78
2021/07/09 11:12:11;;;;;;;7.40;5.27;;;;;;;;;;6114274;29;20051;-78
2021/07/09 11:15:18;;;;;;;7.43;5.40;;;;;;;;;;6117930;29;20048;-78
2021/07/09 11:18:24;;;;;;;7.80;5.00;;;;;;;;;;6138077;28;20043;-77
2021/07/09 11:21:29;;;;;;;7.95;5.60;;;;;;;;;;6143001;28;20047;-78
2021/07/09 11:24:49;;;;;;;6.97;5.20;;;;;;;;;;6153854;28;20063;-78
2021/07/09 11:27:56;;;;;;;6.07;5.43;;;;;;;;;;6117599;29;20063;-78
2021/07/09 11:31:02;;;;;;;6.38;4.97;;;;;;;;;;6131050;29;20413;-78
2021/07/09 11:34:12;;;;;;;7.88;4.95;;;;;;;;;;6115921;29;20118;-78
2021/07/09 11:37:16;;;;;;;6.60;4.60;;;;;;;;;;6116281;29;20055;-78
2021/07/09 11:40:19;;;;;;;7.15;5.00;;;;;;;;;;6119627;29;20133;-78
2021/07/09 11:43:21;;;;;;;5.43;4.93;;;;;;;;;;6122609;29;20135;-78
2021/07/09 11:46:23;;;;;;;5.05;4.40;;;;;;;;;;6121062;29;20054;-78
2021/07/09 11:49:39;;;;;;;5.22;4.55;;;;;;;;;;6136138;29;20187;-78
2021/07/09 11:52:43;;;;;;;6.03;4.32;;;;;;;;;;6121844;29;20111;-78
2021/07/09 11:55:44;;;;;;;5.82;4.20;;;;;;;;;;6119995;29;20588;-78
2021/07/09 11:58:46;;;;;;;7.00;4.70;;;;;;;;;;6132299;28;20134;-78
2021/07/09 12:02:12;;;;;;;5.60;4.03;;;;;;;;;;6147697;28;20123;-78
2021/07/09 12:05:19;;;;;;;5.80;4.22;;;;;;;;;;6117741;29;20576;-78
2021/07/09 12:08:21;;;;;;;7.05;4.53;;;;;;;;;;6135055;29;20544;-78
2021/07/09 12:11:23;;;;;;;6.03;3.85;;;;;;;;;;6134258;28;20071;-78
2021/07/09 12:14:24;;;;;;;6.22;3.67;;;;;;;;;;6135622;29;20071;-78
2021/07/09 12:17:29;;;;;;;5.22;3.88;;;;;;;;;;6120868;28;20179;-78
2021/07/09 12:20:36;;;;;;;4.70;4.13;;;;;;;;;;6119995;29;20122;-78
2021/07/09 12:23:37;;;;;;;6.03;4.50;;;;;;;;;;6121673;29;20044;-78
2021/07/09 12:26:39;;;;;;;8.35;4.93;;;;;;;;;;6124574;28;20056;-79
2021/07/09 12:29:41;;;;;;;6.80;5.60;;;;;;;;;;6123591;29;20489;-78
2021/07/09 12:32:57;;;;;;;6.75;5.07;;;;;;;;;;6135627;28;20067;-77
2021/07/09 12:36:14;;;;;;;7.28;5.53;;;;;;;;;;6121865;29;20114;-78
2021/07/09 12:39:22;;;;;;;6.07;5.05;;;;;;;;;;6121194;29;20055;-78
2021/07/09 12:42:33;;;;;;;7.05;5.13;;;;;;;;;;6127829;28;20059;-77
2021/07/09 12:45:34;;;;;;;7.05;5.90;;;;;;;;;;6136080;28;20083;-78
2021/07/09 12:49:05;;;;;;;6.32;5.72;;;;;;;;;;6122708;29;20142;-78
2021/07/09 12:52:07;;;;;;;6.72;5.93;;;;;;;;;;6121355;29;20383;-78
2021/07/09 12:55:38;;;;;;;7.75;5.72;;;;;;;;;;6132015;28;20063;-78
2021/07/09 12:58:39;;;;;;;6.70;5.97;;;;;;;;;;6155614;28;20046;-77
2021/07/09 13:01:43;;;;;;;6.38;5.47;;;;;;;;;;6130757;28;20047;-78
2021/07/09 13:04:46;;;;;;;8.52;6.00;;;;;;;;;;6155276;28;20066;-78
2021/07/09 13:08:06;;;;;;;7.95;6.63;;;;;;;;;;6164851;28;20419;-78
2021/07/09 13:11:15;;;;;;;7.43;6.07;;;;;;;;;;6168225;28;20120;-77
2021/07/09 13:14:24;;;;;;;6.75;5.88;;;;;;;;;;6123459;28;20071;-78
2021/07/09 13:17:29;;;;;;;7.05;6.35;;;;;;;;;;6137541;28;20047;-77
2021/07/09 13:20:30;;;;;;;7.25;5.80;;;;;;;;;;6135168;28;20109;-78
2021/07/09 13:23:33;;;;;;;7.10;6.40;;;;;;;;;;6142421;28;20043;-78
2021/07/09 13:26:42;;;;;;;7.63;6.60;;;;;;;;;;6140253;28;20090;-77
2021/07/09 13:29:44;;;;;;;7.53;6.60;;;;;;;;;;6133418;28;20044;-77
2021/07/09 13:32:45;;;;;;;7.40;6.22;;;;;;;;;;6132658;28;20052;-78
2021/07/09 13:35:49;;;;;;;7.15;6.28;;;;;;;;;;6127799;29;20044;-78
2021/07/09 13:38:51;;;;;;;9.77;6.70;;;;;;;;;;6113852;29;20052;-78
2021/07/09 13:41:53;;;;;;;8.45;6.75;;;;;;;;;;6114664;28;20352;-78
2021/07/09 13:44:58;;;;;;;9.40;8.40;;;;;;;;;;6116478;29;20417;-79
2021/07/09 13:48:00;;;;;;;10.27;7.67;;;;;;;;;;6116430;29;20036;-79
2021/07/09 13:51:19;;;;;;;9.70;8.05;;;;;;;;;;6113016;29;20051;-79
2021/07/09 13:54:21;;;;;;;8.50;7.63;;;;;;;;;;6111567;29;20048;-79
2021/07/09 13:57:24;;;;;;;7.80;7.00;;;;;;;;;;6126582;28;20075;-77
2021/07/09 14:00:26;;;;;;;9.70;7.97;;;;;;;;;;6132524;28;20425;-79
2021/07/09 14:03:28;;;;;;;7.47;6.72;;;;;;;;;;6111108;28;20062;-78
2021/07/09 14:06:29;;;;;;;7.13;6.40;;;;;;;;;;6109386;29;20043;-78
2021/07/09 14:09:32;;;;;;;7.03;6.30;;;;;;;;;;6114840;29;20043;-83
2021/07/09 14:12:35;;;;;;;7.20;6.45;;;;;;;;;;6147508;28;20070;-81
2021/07/09 14:15:57;;;;;;;6.72;6.03;;;;;;;;;;6148764;28;20277;-81
2021/07/09 14:18:59;;;;;;;6.38;5.88;;;;;;;;;;6127695;28;20051;-78
2021/07/09 14:22:03;;;;;;;6.95;6.25;;;;;;;;;;6146088;28;20051;-79
2021/07/09 14:25:06;;;;;;;6.93;6.32;;;;;;;;;;6141471;28;20118;-79
2021/07/09 14:28:09;;;;;;;7.60;6.50;;;;;;;;;;6127219;29;20050;-80
2021/07/09 14:31:10;;;;;;;;;;;;;;;;;;6118817;29;20055;-78
2021/07/09 14:34:12;;;;;;;10.77;8.70;;;;;;;;;;6112198;29;19923;-77
2021/07/09 14:37:14;;;;;;;12.18;10.27;;;;;;;;;;6114567;29;20044;-77
2021/07/09 14:40:20;;;;;;;11.82;10.02;;;;;;;;;;6114559;29;20059;-76
2021/07/09 14:43:25;;;;;;;11.77;9.75;;;;;;;;;;6115800;28;20126;-77
2021/07/09 14:46:27;;;;;;;10.82;9.73;;;;;;;;;;6130347;28;20462;-78
2021/07/09 14:49:29;;;;;;;12.00;10.07;;;;;;;;;;6130357;28;20056;-79
2021/07/09 14:52:36;;;;;;;10.25;9.25;;;;;;;;;;6115488;29;20047;-78
2021/07/09 14:55:38;;;;;;;10.65;9.43;;;;;;;;;;6129230;29;20064;-78
2021/07/09 14:58:40;;;;;;;10.70;9.02;;;;;;;;;;6127544;28;20043;-77
2021/07/09 15:01:41;;;;;;;8.98;8.07;;;;;;;;;;6128794;28;20048;-78
2021/07/09 15:04:43;;;;;;;9.25;8.30;;;;;;;;;;6113859;29;20226;-78
2021/07/09 15:07:45;;;;;;;8.98;8.07;;;;;;;;;;6115557;29;20055;-77
2021/07/09 15:10:47;;;;;;;8.77;7.88;;;;;;;;;;6114473;28;20056;-76
2021/07/09 15:13:52;;;;;;;8.37;7.53;;;;;;;;;;6127458;28;20046;-77
2021/07/09 15:16:53;;;;;;;8.27;7.35;;;;;;;;;;6157813;28;20462;-77
2021/07/09 15:19:55;;;;;;;8.82;8.00;;;;;;;;;;6145680;28;20046;-77
2021/07/09 15:22:57;;;;;;;8.25;7.45;;;;;;;;;;6156204;28;20123;-76
2021/07/09 15:26:13;;;;;;;7.68;6.97;;;;;;;;;;6136298;28;20043;-77
2021/07/09 15:29:17;;;;;;;7.95;7.15;;;;;;;;;;6145596;28;20055;-77
2021/07/09 15:32:19;;;;;;;8.10;7.10;;;;;;;;;;6158729;28;20193;-76
2021/07/09 15:35:20;;;;;;;8.10;7.13;;;;;;;;;;6143609;28;20530;-76
2021/07/09 15:38:22;;;;;;;7.63;6.85;;;;;;;;;;6144951;28;20078;-77
2021/07/09 15:41:24;;;;;;;8.93;7.40;;;;;;;;;;6129465;28;20039;-77
2021/07/09 15:44:26;;;;;;;7.32;6.63;;;;;;;;;;6134756;28;20183;-77
2021/07/09 15:47:29;;;;;;;7.35;6.70;;;;;;;;;;6153950;28;20071;-76
2021/07/09 15:50:31;;;;;;;7.00;6.32;;;;;;;;;;6158595;28;20512;-76
2021/07/09 15:53:33;;;;;;;7.00;6.30;;;;;;;;;;6146062;28;20054;-77
2021/07/09 15:56:35;;;;;;;6.57;5.97;;;;;;;;;;6121750;28;20048;-77
2021/07/09 15:59:37;;;;;;;7.10;5.95;;;;;;;;;;6141840;28;20126;-77
2021/07/09 16:02:38;;;;;;;7.15;5.97;;;;;;;;;;6140117;28;20654;-78
2021/07/09 16:05:42;;;;;;;8.00;5.80;;;;;;;;;;6141027;28;20090;-77
2021/07/09 16:08:43;;;;;;;8.05;5.75;;;;;;;;;;6143427;28;20039;-76
2021/07/09 16:11:45;;;;;;;6.40;5.80;;;;;;;;;;6141573;28;20844;-76
2021/07/09 16:14:56;;;;;;;6.32;5.72;;;;;;;;;;6142021;28;20512;-76
2021/07/09 16:17:58;;;;;;;7.93;6.05;;;;;;;;;;6139996;28;20203;-77
2021/07/09 16:20:59;;;;;;;6.23;5.10;;;;;;;;;;6143452;28;20568;-77
2021/07/09 16:24:03;;;;;;;6.18;5.32;;;;;;;;;;6137305;28;20043;-77
2021/07/09 16:27:08;;;;;;;6.15;5.55;;;;;;;;;;6141390;28;20187;-77
2021/07/09 16:30:11;;;;;;;5.70;5.10;;;;;;;;;;6139215;28;20043;-77
2021/07/09 16:33:19;;;;;;;5.88;5.30;;;;;;;;;;6137679;28;20516;-76
2021/07/09 16:36:20;;;;;;;6.10;4.80;;;;;;;;;;6119152;28;20126;-76
2021/07/09 16:39:23;;;;;;;5.57;5.07;;;;;;;;;;6138787;28;20039;-76
2021/07/09 16:42:25;;;;;;;5.75;4.63;;;;;;;;;;6153203;28;20105;-76
2021/07/09 16:45:28;;;;;;;5.45;4.95;;;;;;;;;;6139196;28;20075;-77
2021/07/09 16:48:29;;;;;;;5.90;5.07;;;;;;;;;;6140501;28;20047;-76
2021/07/09 16:51:31;;;;;;;5.95;4.50;;;;;;;;;;6139713;28;20195;-77
2021/07/09 16:54:33;;;;;;;6.85;5.47;;;;;;;;;;6140727;28;20051;-77
2021/07/09 16:57:34;;;;;;;5.82;4.82;;;;;;;;;;6138685;28;20155;-76
2021/07/09 17:00:36;;;;;;;5.38;4.88;;;;;;;;;;6140214;28;20504;-76
2021/07/09 17:03:38;;;;;;;5.40;4.83;;;;;;;;;;6131646;29;20505;-77
2021/07/09 17:06:40;;;;;;;5.38;4.85;;;;;;;;;;6140074;28;21027;-77
2021/07/09 17:09:42;;;;;;;5.85;4.93;;;;;;;;;;6138037;28;20055;-77
2021/07/09 17:12:44;;;;;;;6.47;4.93;;;;;;;;;;6119599;29;20070;-77
2021/07/09 17:15:45;;;;;;;5.10;4.45;;;;;;;;;;6133044;28;20134;-77
2021/07/09 17:18:47;;;;;;;5.72;4.72;;;;;;;;;;6137522;28;20044;-77
2021/07/09 17:21:49;;;;;;;5.22;4.72;;;;;;;;;;6158785;28;20063;-77
2021/07/09 17:25:01;;;;;;;5.70;5.15;;;;;;;;;;6154518;28;20082;-77
2021/07/09 17:28:03;;;;;;;;;;;;;;;;;;6141765;28;20058;-76
2021/07/09 17:31:07;;;;;;;5.63;5.10;;;;;;;;;;6135973;28;19930;-76
2021/07/09 17:34:09;;;;;;;6.63;5.90;;;;;;;;;;6139122;28;20443;-76
2021/07/09 17:37:25;;;;;;;6.93;5.20;;;;;;;;;;6137919;28;20532;-77
2021/07/09 17:40:29;;;;;;;6.57;5.80;;;;;;;;;;6113919;28;20083;-76
2021/07/09 17:43:34;;;;;;;8.23;6.13;;;;;;;;;;6123998;28;20063;-77
2021/07/09 17:46:36;;;;;;;6.63;6.03;;;;;;;;;;6130812;28;20047;-77
2021/07/09 17:49:38;;;;;;;8.38;6.40;;;;;;;;;;6116774;29;20525;-77
2021/07/09 17:52:39;;;;;;;6.55;5.82;;;;;;;;;;6147015;28;20075;-76
2021/07/09 17:55:41;;;;;;;6.47;5.78;;;;;;;;;;6143540;28;20198;-77
2021/07/09 17:58:42;;;;;;;7.72;5.65;;;;;;;;;;6126423;28;20249;-76
2021/07/09 18:01:44;;;;;;;6.35;5.75;;;;;;;;;;6128954;28;20044;-77
2021/07/09 18:04:46;;;;;;;7.70;5.15;;;;;;;;;;6123912;28;20047;-77
2021/07/09 18:07:47;;;;;;;4.93;4.50;;;;;;;;;;6140706;28;20501;-77